createdAt,value
2022-12-05T00:01:57.271Z,27.47
2022-12-05T00:04:26.885Z,27.10
2022-12-05T00:06:58.599Z,25.30
2022-12-05T00:09:27.787Z,27.23
2022-12-05T00:11:55.023Z,28.90
2022-12-05T00:14:22.023Z,28.37
2022-12-05T00:16:49.017Z,30.40
2022-12-05T00:19:18.937Z,26.53
2022-12-05T00:21:48.810Z,27.20
2022-12-05T00:24:17.167Z,29.03
2022-12-05T00:26:44.584Z,28.03
2022-12-05T00:29:12.327Z,26.23
2022-12-05T00:31:39.476Z,31.30
2022-12-05T00:34:06.812Z,28.00
2022-12-05T00:36:36.911Z,28.73
2022-12-05T00:39:11.226Z,28.57
2022-12-05T00:41:40.594Z,28.90
2022-12-05T00:44:08.381Z,27.90
2022-12-05T00:46:38.296Z,26.67
2022-12-05T00:49:10.662Z,28.23
2022-12-05T00:51:44.221Z,27.60
2022-12-05T00:54:14.820Z,27.90
2022-12-05T00:56:44.397Z,28.40
2022-12-05T00:59:21.109Z,28.40
2022-12-05T01:01:52.474Z,28.33
2022-12-05T01:04:28.020Z,26.60
2022-12-05T01:06:59.224Z,25.23
2022-12-05T01:09:29.235Z,26.23
2022-12-05T01:11:56.584Z,26.30
2022-12-05T01:14:25.765Z,25.77
2022-12-05T01:16:56.414Z,26.13
2022-12-05T01:19:33.120Z,27.70
2022-12-05T01:22:00.957Z,25.10
2022-12-05T01:24:29.978Z,26.90
2022-12-05T01:26:57.343Z,25.17
2022-12-05T01:29:26.225Z,25.80
2022-12-05T01:31:54.284Z,25.93
2022-12-05T01:34:22.405Z,25.27
2022-12-05T01:36:51.600Z,27.03
2022-12-05T01:39:18.602Z,26.03
2022-12-05T01:41:49.374Z,27.70
2022-12-05T01:44:16.219Z,27.50
2022-12-05T01:46:53.750Z,26.77
2022-12-05T01:49:34.192Z,26.30
2022-12-05T01:52:07.856Z,26.10
2022-12-05T01:54:38.314Z,25.63
2022-12-05T01:57:11.726Z,23.73
2022-12-05T01:59:57.316Z,26.17
2022-12-05T02:02:24.949Z,25.73
2022-12-05T02:05:10.645Z,26.10
2022-12-05T02:07:41.116Z,25.57
2022-12-05T02:10:09.085Z,23.93
2022-12-05T02:12:38.941Z,25.80
2022-12-05T02:15:21.870Z,24.00
2022-12-05T02:18:54.651Z,28.00
2022-12-05T02:21:33.726Z,24.77
2022-12-05T02:24:57.293Z,26.33
2022-12-05T02:28:08.350Z,24.50
2022-12-05T02:31:16.742Z,25.93
2022-12-05T02:33:50.988Z,24.30
2022-12-05T02:36:40.923Z,24.60
2022-12-05T02:39:47.740Z,25.00
2022-12-05T02:42:41.283Z,24.83
2022-12-05T02:45:13.282Z,24.80
2022-12-05T02:47:48.652Z,25.27
2022-12-05T02:50:23.056Z,25.10
2022-12-05T02:52:52.534Z,24.47
2022-12-05T02:55:26.562Z,26.37
2022-12-05T02:57:59.121Z,25.43
2022-12-05T03:00:26.065Z,24.30
2022-12-05T03:02:59.122Z,26.93
2022-12-05T03:05:39.040Z,25.87
2022-12-05T03:08:15.590Z,26.60
2022-12-05T03:10:45.158Z,26.00
2022-12-05T03:13:26.007Z,24.70
2022-12-05T03:16:17.300Z,23.17
2022-12-05T03:19:16.395Z,24.80
2022-12-05T03:22:02.383Z,22.63
2022-12-05T03:24:30.780Z,23.03
2022-12-05T03:27:30.828Z,24.63
2022-12-05T03:30:04.902Z,24.23
2022-12-05T03:32:34.393Z,24.00
2022-12-05T03:35:17.322Z,24.33
2022-12-05T03:38:37.924Z,24.27
2022-12-05T03:41:40.909Z,24.23
2022-12-05T03:44:18.558Z,26.60
2022-12-05T03:46:54.698Z,25.50
2022-12-05T03:49:35.067Z,25.70
2022-12-05T03:53:03.689Z,25.50
2022-12-05T03:55:31.018Z,24.30
2022-12-05T03:58:18.317Z,26.20
2022-12-05T04:00:51.808Z,25.13
2022-12-05T04:03:27.480Z,27.60
2022-12-05T04:06:01.722Z,25.60
2022-12-05T04:08:48.524Z,25.23
2022-12-05T04:11:22.955Z,24.30
2022-12-05T04:14:01.343Z,25.17
2022-12-05T04:17:02.398Z,24.73
2022-12-05T04:20:01.430Z,23.53
2022-12-05T04:22:28.824Z,24.87
2022-12-05T04:25:19.132Z,26.50
2022-12-05T04:28:35.931Z,25.83
2022-12-05T04:31:16.344Z,26.57
2022-12-05T04:34:18.065Z,25.63
2022-12-05T04:36:56.921Z,26.97
2022-12-05T04:39:48.615Z,27.30
2022-12-05T04:42:23.044Z,27.47
2022-12-05T04:45:13.151Z,27.23
2022-12-05T04:47:47.507Z,26.20
2022-12-05T04:50:21.043Z,27.00
2022-12-05T04:52:53.607Z,26.20
2022-12-05T04:55:28.183Z,26.77
2022-12-05T04:58:19.907Z,25.60
2022-12-05T05:01:23.113Z,27.40
2022-12-05T05:04:13.039Z,26.90
2022-12-05T05:06:44.602Z,28.37
2022-12-05T05:09:11.942Z,28.37
2022-12-05T05:11:39.206Z,27.30
2022-12-05T05:14:06.393Z,26.50
2022-12-05T05:16:45.537Z,27.87
2022-12-05T05:19:13.150Z,28.40
2022-12-05T05:21:42.491Z,27.57
2022-12-05T05:24:14.004Z,28.73
2022-12-05T05:26:46.088Z,28.77
2022-12-05T05:29:14.353Z,30.90
2022-12-05T05:31:45.376Z,29.30
2022-12-05T05:34:15.850Z,29.80
2022-12-05T05:36:44.013Z,30.03
2022-12-05T05:39:15.454Z,30.77
2022-12-05T05:41:45.289Z,31.83
2022-12-05T05:44:12.508Z,31.30
2022-12-05T05:46:39.713Z,33.27
2022-12-05T05:49:07.077Z,31.83
2022-12-05T05:51:36.890Z,32.43
2022-12-05T05:54:06.643Z,32.93
2022-12-05T05:56:40.963Z,33.90
2022-12-05T05:59:08.014Z,31.13
2022-12-05T06:01:35.072Z,35.70
2022-12-05T06:04:05.250Z,32.30
2022-12-05T06:06:37.084Z,34.40
2022-12-05T06:09:10.204Z,33.93
2022-12-05T06:11:39.338Z,33.13
2022-12-05T06:14:06.211Z,36.60
2022-12-05T06:16:35.439Z,36.40
2022-12-05T06:19:05.360Z,33.70
2022-12-05T06:21:34.587Z,35.37
2022-12-05T06:24:01.594Z,34.13
2022-12-05T06:26:33.036Z,35.93
2022-12-05T06:29:02.147Z,36.93
2022-12-05T06:31:31.608Z,36.07
2022-12-05T06:34:04.785Z,37.87
2022-12-05T06:36:34.783Z,36.50
2022-12-05T06:39:03.971Z,36.27
2022-12-05T06:41:36.183Z,36.37
2022-12-05T06:44:05.615Z,35.30
2022-12-05T06:46:32.463Z,37.80
2022-12-05T06:48:59.879Z,35.70
2022-12-05T06:51:31.426Z,36.27
2022-12-05T06:53:58.462Z,35.57
2022-12-05T06:56:25.422Z,35.10
2022-12-05T06:58:57.212Z,34.07
2022-12-05T07:01:40.820Z,36.63
2022-12-05T07:04:13.026Z,34.00
2022-12-05T07:06:50.212Z,35.87
2022-12-05T07:09:44.638Z,32.93
2022-12-05T07:12:14.832Z,31.27
2022-12-05T07:14:48.177Z,35.33
2022-12-05T07:17:19.287Z,34.50
2022-12-05T07:19:49.597Z,32.50
2022-12-05T07:22:18.390Z,29.87
2022-12-05T07:24:46.235Z,30.70
2022-12-05T07:27:25.049Z,28.73
2022-12-05T07:29:54.119Z,27.00
2022-12-05T07:32:23.063Z,29.47
2022-12-05T07:34:55.568Z,28.73
2022-12-05T07:37:25.315Z,27.97
2022-12-05T07:39:53.257Z,27.97
2022-12-05T07:42:20.241Z,24.70
2022-12-05T07:44:47.205Z,25.37
2022-12-05T07:47:16.462Z,23.17
2022-12-05T07:49:45.618Z,25.60
2022-12-05T07:52:15.233Z,23.90
2022-12-05T07:54:42.165Z,23.27
2022-12-05T07:57:11.144Z,23.10
2022-12-05T07:59:38.320Z,22.60
2022-12-05T08:02:06.533Z,24.20
2022-12-05T08:04:33.549Z,21.87
2022-12-05T08:07:00.503Z,22.00
2022-12-05T08:09:27.616Z,19.70
2022-12-05T08:11:54.575Z,22.37
2022-12-05T08:14:23.718Z,21.10
2022-12-05T08:16:50.714Z,21.93
2022-12-05T08:19:22.599Z,22.03
2022-12-05T08:21:49.622Z,22.70
2022-12-05T08:24:19.166Z,21.60
2022-12-05T08:26:46.194Z,21.90
2022-12-05T08:29:16.054Z,21.30
2022-12-05T08:31:49.536Z,22.53
2022-12-05T08:34:25.546Z,23.53
2022-12-05T08:36:52.365Z,24.53
2022-12-05T08:39:19.912Z,23.80
2022-12-05T08:41:48.019Z,22.20
2022-12-05T08:44:18.680Z,24.27
2022-12-05T08:46:49.590Z,23.53
2022-12-05T08:49:19.588Z,22.47
2022-12-05T08:51:46.854Z,21.57
2022-12-05T08:54:16.532Z,23.00
2022-12-05T08:56:43.607Z,23.70
2022-12-05T08:59:10.619Z,22.10
2022-12-05T09:01:39.399Z,23.40
2022-12-05T09:04:07.697Z,23.47
2022-12-05T09:06:39.161Z,22.90
2022-12-05T09:09:09.184Z,20.40
2022-12-05T09:11:46.402Z,21.17
2022-12-05T09:14:14.265Z,20.37
2022-12-05T09:16:43.928Z,20.53
2022-12-05T09:19:21.012Z,22.33
2022-12-05T09:21:53.216Z,21.83
2022-12-05T09:24:25.099Z,21.00
2022-12-05T09:26:52.109Z,22.80
2022-12-05T09:29:19.327Z,21.33
2022-12-05T09:31:49.954Z,20.53
2022-12-05T09:34:21.671Z,20.07
2022-12-05T09:36:55.597Z,20.23
2022-12-05T09:39:25.658Z,20.37
2022-12-05T09:42:20.167Z,20.00
2022-12-05T09:45:04.049Z,18.57
2022-12-05T09:48:01.548Z,19.17
2022-12-05T09:50:46.696Z,19.40
2022-12-05T09:53:43.593Z,17.40
2022-12-05T09:56:19.378Z,19.10
2022-12-05T09:58:53.574Z,18.87
2022-12-05T10:01:56.144Z,17.17
2022-12-05T10:05:00.737Z,18.23
2022-12-05T10:07:39.315Z,17.50
2022-12-05T10:10:40.609Z,17.00
2022-12-05T10:13:22.165Z,18.90
2022-12-05T10:16:04.148Z,17.93
2022-12-05T10:18:43.248Z,16.57
2022-12-05T10:21:20.589Z,17.10
2022-12-05T10:24:13.297Z,17.93
2022-12-05T10:26:46.980Z,17.63
2022-12-05T10:29:40.410Z,17.17
2022-12-05T10:32:18.962Z,15.40
2022-12-05T10:34:46.649Z,17.17
2022-12-05T10:37:22.692Z,17.10
2022-12-05T10:39:51.039Z,16.90
2022-12-05T10:42:35.151Z,17.50
2022-12-05T10:45:14.219Z,18.57
2022-12-05T10:47:41.573Z,18.27
2022-12-05T10:50:23.521Z,17.00
2022-12-05T10:52:53.246Z,18.23
2022-12-05T10:55:20.804Z,17.60
2022-12-05T10:58:15.515Z,17.73
2022-12-05T11:00:48.959Z,16.77
2022-12-05T11:03:38.432Z,17.93
2022-12-05T11:06:31.233Z,16.23
2022-12-05T11:09:08.428Z,18.30
2022-12-05T11:11:35.512Z,17.93
2022-12-05T11:14:21.436Z,17.60
2022-12-05T11:16:57.637Z,18.00
2022-12-05T11:19:43.187Z,15.87
2022-12-05T11:22:17.447Z,14.23
2022-12-05T11:24:44.422Z,16.53
2022-12-05T11:27:34.768Z,16.77
2022-12-05T11:30:22.343Z,17.77
2022-12-05T11:32:51.812Z,15.97
2022-12-05T11:35:28.917Z,16.93
2022-12-05T11:38:09.734Z,17.13
2022-12-05T11:41:18.551Z,16.73
2022-12-05T11:44:15.946Z,16.50
2022-12-05T11:47:14.116Z,15.47
2022-12-05T11:50:08.293Z,16.03
2022-12-05T11:52:56.422Z,14.57
2022-12-05T11:55:57.016Z,15.60
2022-12-05T11:58:32.778Z,15.90
2022-12-05T12:01:47.290Z,16.30
2022-12-05T12:04:27.728Z,16.03
2022-12-05T12:07:19.218Z,17.57
2022-12-05T12:10:21.692Z,16.00
2022-12-05T12:13:34.798Z,17.17
2022-12-05T12:16:06.696Z,16.00
2022-12-05T12:18:56.984Z,15.97
2022-12-05T12:21:42.750Z,16.70
2022-12-05T12:24:31.927Z,16.23
2022-12-05T12:27:30.396Z,16.73
2022-12-05T12:30:10.689Z,15.37
2022-12-05T12:33:20.444Z,15.20
2022-12-05T12:35:57.091Z,15.07
2022-12-05T12:38:51.629Z,17.80
2022-12-05T12:41:56.176Z,20.13
2022-12-05T12:45:05.451Z,17.83
2022-12-05T12:48:03.684Z,14.30
2022-12-05T12:50:43.214Z,14.80
2022-12-05T12:53:47.747Z,14.63
2022-12-05T12:57:15.286Z,13.40
2022-12-05T13:00:09.457Z,11.60
2022-12-05T13:03:00.382Z,14.80
2022-12-05T13:05:34.176Z,13.10
2022-12-05T13:08:38.524Z,12.97
2022-12-05T13:11:15.537Z,13.87
2022-12-05T13:13:56.629Z,13.63
2022-12-05T13:16:28.687Z,14.73
2022-12-05T13:18:57.339Z,12.50
2022-12-05T13:21:27.436Z,13.43
2022-12-05T13:24:03.176Z,13.20
2022-12-05T13:26:33.090Z,10.73
2022-12-05T13:29:03.419Z,12.17
2022-12-05T13:31:40.480Z,14.80
2022-12-05T13:34:46.314Z,13.30
2022-12-05T13:37:48.069Z,12.80
2022-12-05T13:40:52.561Z,12.47
2022-12-05T13:43:26.780Z,12.23
2022-12-05T13:46:29.636Z,12.70
2022-12-05T13:49:33.914Z,11.87
2022-12-05T13:52:16.842Z,11.00
2022-12-05T13:55:15.584Z,11.87
2022-12-05T13:57:44.255Z,10.87
2022-12-05T14:00:11.147Z,12.20
2022-12-05T14:02:47.125Z,11.70
2022-12-05T14:05:14.041Z,10.70
2022-12-05T14:07:45.913Z,10.90
2022-12-05T14:10:25.032Z,10.60
2022-12-05T14:13:14.831Z,11.67
2022-12-05T14:15:45.677Z,11.50
2022-12-05T14:18:44.853Z,11.67
2022-12-05T14:21:21.975Z,12.00
2022-12-05T14:24:07.992Z,12.60
2022-12-05T14:26:59.569Z,10.73
2022-12-05T14:29:47.308Z,11.27
2022-12-05T14:32:28.361Z,10.80
2022-12-05T14:35:01.373Z,10.70
2022-12-05T14:37:36.802Z,10.97
2022-12-05T14:40:44.616Z,11.43
2022-12-05T14:43:33.474Z,11.10
2022-12-05T14:46:16.692Z,11.87
2022-12-05T14:48:48.404Z,11.60
2022-12-05T14:51:33.202Z,11.27
2022-12-05T14:54:19.583Z,10.90
2022-12-05T14:57:03.201Z,11.37
2022-12-05T15:00:00.531Z,10.40
2022-12-05T15:02:55.681Z,11.27
2022-12-05T15:05:33.236Z,10.60
2022-12-05T15:08:04.207Z,11.60
2022-12-05T15:10:42.945Z,10.63
2022-12-05T15:13:24.647Z,10.97
2022-12-05T15:16:22.266Z,11.47
2022-12-05T15:19:00.534Z,11.57
2022-12-05T15:21:42.197Z,10.80
2022-12-05T15:24:17.120Z,10.70
2022-12-05T15:26:51.311Z,11.77
2022-12-05T15:29:23.033Z,11.87
2022-12-05T15:31:59.242Z,12.47
2022-12-05T15:34:44.689Z,11.17
2022-12-05T15:37:18.543Z,11.17
2022-12-05T15:40:14.403Z,11.73
2022-12-05T15:42:45.835Z,11.30
2022-12-05T15:45:15.352Z,12.20
2022-12-05T15:47:59.363Z,12.57
2022-12-05T15:50:37.821Z,12.50
2022-12-05T15:53:09.627Z,11.87
2022-12-05T15:55:48.739Z,11.87
2022-12-05T15:58:36.872Z,14.60
2022-12-05T16:01:26.795Z,14.53
2022-12-05T16:04:12.638Z,11.40
2022-12-05T16:07:00.494Z,12.30
2022-12-05T16:09:32.389Z,11.77
2022-12-05T16:12:16.907Z,11.57
2022-12-05T16:14:59.528Z,10.73
2022-12-05T16:17:30.561Z,11.60
2022-12-05T16:20:24.891Z,14.13
2022-12-05T16:22:56.325Z,10.23
2022-12-05T16:25:29.605Z,10.30
2022-12-05T16:28:07.431Z,10.90
2022-12-05T16:30:36.087Z,10.83
2022-12-05T16:33:06.495Z,11.07
2022-12-05T16:35:39.958Z,10.63
2022-12-05T16:38:29.911Z,11.67
2022-12-05T16:40:59.358Z,10.37
2022-12-05T16:43:46.180Z,10.50
2022-12-05T16:46:17.386Z,10.43
2022-12-05T16:48:50.425Z,11.23
2022-12-05T16:51:30.137Z,11.90
2022-12-05T16:53:57.289Z,12.33
2022-12-05T16:56:32.653Z,11.43
2022-12-05T16:59:23.065Z,12.60
2022-12-05T17:01:52.286Z,13.70
2022-12-05T17:04:21.849Z,13.47
2022-12-05T17:06:51.513Z,11.40
2022-12-05T17:09:20.820Z,11.93
2022-12-05T17:11:53.370Z,11.90
2022-12-05T17:14:22.815Z,12.53
2022-12-05T17:16:52.008Z,11.53
2022-12-05T17:19:19.045Z,12.83
2022-12-05T17:21:48.559Z,12.87
2022-12-05T17:24:20.619Z,12.83
2022-12-05T17:26:47.729Z,15.10
2022-12-05T17:29:17.297Z,12.63
2022-12-05T17:31:47.093Z,16.90
2022-12-05T17:34:17.102Z,12.87
2022-12-05T17:36:45.286Z,12.90
2022-12-05T17:39:12.764Z,13.37
2022-12-05T17:41:42.385Z,11.90
2022-12-05T17:44:14.478Z,14.20
2022-12-05T17:46:45.094Z,13.70
2022-12-05T17:49:18.603Z,14.37
2022-12-05T17:52:19.906Z,13.60
2022-12-05T17:54:36.213Z,13.50
2022-12-05T17:57:07.522Z,13.57
2022-12-05T17:59:34.471Z,13.33
2022-12-05T18:02:03.720Z,14.77
2022-12-05T18:04:36.811Z,14.57
2022-12-05T18:07:06.105Z,15.10
2022-12-05T18:09:32.934Z,14.00
2022-12-05T18:11:59.895Z,14.03
2022-12-05T18:14:28.313Z,14.47
2022-12-05T18:16:57.971Z,15.27
2022-12-05T18:19:27.402Z,15.30
2022-12-05T18:21:57.012Z,16.93
2022-12-05T18:24:24.059Z,14.20
2022-12-05T18:26:51.002Z,14.20
2022-12-05T18:29:17.871Z,14.17
2022-12-05T18:31:44.870Z,14.70
2022-12-05T18:34:11.861Z,13.63
2022-12-05T18:36:41.375Z,13.43
2022-12-05T18:39:18.450Z,12.27
2022-12-05T18:41:47.947Z,12.50
2022-12-05T18:44:15.119Z,12.33
2022-12-05T18:46:44.525Z,12.00
2022-12-05T18:49:13.366Z,11.50
2022-12-05T18:51:43.992Z,11.63
2022-12-05T18:54:13.765Z,11.33
2022-12-05T18:56:41.087Z,10.73
2022-12-05T18:59:15.052Z,11.03
2022-12-05T19:01:42.432Z,12.53
2022-12-05T19:04:14.393Z,11.43
2022-12-05T19:06:49.652Z,13.20
2022-12-05T19:09:19.456Z,12.17
2022-12-05T19:11:50.954Z,12.63
2022-12-05T19:14:19.436Z,12.00
2022-12-05T19:16:52.652Z,13.87
2022-12-05T19:19:25.270Z,11.67
2022-12-05T19:21:53.486Z,12.07
2022-12-05T19:24:22.846Z,11.50
2022-12-05T19:26:49.929Z,12.63
2022-12-05T19:29:17.337Z,10.93
2022-12-05T19:31:45.180Z,11.20
2022-12-05T19:34:15.030Z,10.83
2022-12-05T19:36:45.027Z,10.73
2022-12-05T19:39:16.659Z,11.40
2022-12-05T19:41:49.003Z,11.80
2022-12-05T19:44:16.072Z,12.07
2022-12-05T19:46:43.725Z,11.83
2022-12-05T19:49:16.458Z,10.83
2022-12-05T19:51:48.569Z,11.20
2022-12-05T19:54:18.089Z,10.53
2022-12-05T19:56:47.772Z,11.80
2022-12-05T19:59:17.507Z,11.20
2022-12-05T20:01:44.834Z,10.30
2022-12-05T20:04:14.840Z,10.57
2022-12-05T20:06:45.733Z,11.77
2022-12-05T20:09:18.660Z,10.80
2022-12-05T20:11:55.072Z,11.20
2022-12-05T20:14:24.814Z,10.23
2022-12-05T20:16:54.946Z,9.60
2022-12-05T20:19:23.875Z,10.70
2022-12-05T20:21:55.234Z,10.10
2022-12-05T20:24:22.911Z,9.67
2022-12-05T20:26:49.877Z,10.77
2022-12-05T20:29:16.874Z,11.00
2022-12-05T20:31:44.245Z,10.00
2022-12-05T20:34:13.848Z,9.80
2022-12-05T20:36:41.476Z,9.90
2022-12-05T20:39:14.487Z,10.47
2022-12-05T20:41:41.618Z,9.83
2022-12-05T20:44:11.355Z,10.13
2022-12-05T20:46:41.609Z,10.70
2022-12-05T20:49:09.179Z,10.53
2022-12-05T20:51:45.174Z,10.90
2022-12-05T20:54:13.380Z,11.60
2022-12-05T20:56:40.967Z,11.70
2022-12-05T20:59:15.931Z,11.67
2022-12-05T21:01:43.072Z,11.37
2022-12-05T21:04:13.896Z,11.67
2022-12-05T21:06:45.801Z,11.10
2022-12-05T21:09:26.355Z,10.27
2022-12-05T21:11:56.655Z,10.40
2022-12-05T21:14:26.639Z,10.70
2022-12-05T21:16:58.258Z,11.70
2022-12-05T21:19:27.134Z,10.60
2022-12-05T21:21:56.704Z,10.90
2022-12-05T21:24:23.615Z,10.97
2022-12-05T21:26:51.467Z,11.50
2022-12-05T21:29:18.548Z,10.30
2022-12-05T21:31:49.943Z,11.20
2022-12-05T21:34:22.588Z,11.33
2022-12-05T21:36:49.795Z,11.23
2022-12-05T21:39:16.931Z,11.00
2022-12-05T21:41:46.364Z,11.53
2022-12-05T21:44:14.849Z,10.87
2022-12-05T21:46:41.854Z,11.97
2022-12-05T21:49:11.776Z,11.60
2022-12-05T21:51:38.617Z,11.23
2022-12-05T21:54:05.573Z,10.53
2022-12-05T21:56:34.904Z,10.03
2022-12-05T21:59:04.195Z,10.63
2022-12-05T22:01:31.077Z,9.70
2022-12-05T22:04:01.193Z,9.93
2022-12-05T22:06:33.340Z,10.77
2022-12-05T22:09:04.770Z,9.40
2022-12-05T22:11:31.718Z,9.27
2022-12-05T22:13:58.566Z,9.90
2022-12-05T22:16:30.810Z,9.53
2022-12-05T22:18:59.150Z,9.50
2022-12-05T22:21:25.991Z,9.70
2022-12-05T22:23:52.891Z,8.87
2022-12-05T22:26:28.315Z,9.00
2022-12-05T22:29:01.395Z,8.50
2022-12-05T22:31:30.388Z,8.60
2022-12-05T22:33:59.689Z,7.73
2022-12-05T22:36:26.573Z,7.83
2022-12-05T22:38:53.396Z,7.73
2022-12-05T22:41:23.888Z,7.60
2022-12-05T22:43:59.023Z,7.43
2022-12-05T22:46:29.259Z,7.87
2022-12-05T22:49:02.553Z,7.67
2022-12-05T22:51:29.634Z,8.00
2022-12-05T22:53:59.689Z,8.50
2022-12-05T22:56:29.345Z,8.10
2022-12-05T22:58:58.772Z,7.53
2022-12-05T23:01:34.005Z,8.17
2022-12-05T23:04:15.008Z,8.47
2022-12-05T23:06:41.882Z,9.27
2022-12-05T23:09:10.962Z,8.40
2022-12-05T23:11:38.217Z,8.00
2022-12-05T23:14:06.898Z,8.67
2022-12-05T23:16:36.397Z,8.30
2022-12-05T23:19:08.956Z,8.23
2022-12-05T23:21:40.247Z,8.10
2022-12-05T23:24:10.844Z,7.93
2022-12-05T23:26:44.732Z,9.40
2022-12-05T23:29:13.342Z,8.87
2022-12-05T23:31:43.956Z,8.97
2022-12-05T23:34:14.080Z,9.30
2022-12-05T23:36:43.428Z,9.20
2022-12-05T23:39:10.537Z,8.67
2022-12-05T23:41:37.450Z,9.40
2022-12-05T23:44:04.760Z,9.47
2022-12-05T23:46:31.693Z,9.23
2022-12-05T23:48:59.118Z,9.57
2022-12-05T23:51:30.789Z,8.90
2022-12-05T23:54:00.851Z,8.97
2022-12-05T23:56:33.639Z,8.50
2022-12-05T23:59:05.130Z,8.60
